PH-0050 weather

Eton Cyberpod Helipads
Quezon City, Philippines

Public forecast

Using degrees Celsius for public forecast. Weather courtesy of forecast.io.

METAR (pilot weather report)

Closest report is Ninoy Aquino International Airport, 5.5 nm (10.3 km) SSW. Retrieved 2019/09/22 10:00 UTC (53 minutes ago):

RPLL 221000Z 26009KT 9999 FEW025 BKN100 29/25 Q1011 NOSIG RMK A2985

TAF (pilot weather forecast)

Closest forecast is Ninoy Aquino International Airport, 5.5 nm (10.3 km) SSW. Retrieved 2019/09/22 06:00 UTC (5 hours ago):

TAF RPLL 220500Z 2206/2312 25006KT 9999 FEW023 BKN300 TX31/2206Z TN25/2221Z TEMPO 2206/2212 26014KT FEW018CB SCT023 BKN100 TEMPO 2212/2218 VRB02KT FEW023 SCT100 BKN300